Time;durP1;ratioP1;P1;durP2;ratioP2;P2;SDS_P1;SDS_P2;PMS_P1;PMS_P2;Temp;Humidity;BMP_temperature;BMP_pressure;BME280_temperature;BME280_humidity;BME280_pressure;Samples;Min_cycle;Max_cycle;Signal;HPM_P1;HPM_P2
2021/12/26 00:00:45;;;;;;;;;;;;;;;2.74;67.43;99286.69;4440393;32;34039;-53
2021/12/26 00:03:12;;;;;;;;;;;;;;;2.80;67.32;99290.84;4451788;32;33796;-53
2021/12/26 00:05:40;;;;;;;;;;;;;;;2.29;67.86;99290.09;4450854;32;34838;-53
2021/12/26 00:08:07;;;;;;;;;;;;;;;2.14;68.35;99286.28;4451178;32;35030;-53
2021/12/26 00:10:34;;;;;;;;;;;;;;;2.25;68.55;99280.69;4450604;32;32963;-53
2021/12/26 00:13:02;;;;;;;;;;;;;;;2.42;67.98;99282.66;4449608;32;34962;-54
2021/12/26 00:15:29;;;;;;;;;;;;;;;2.26;68.16;99277.16;4451694;32;34505;-53
2021/12/26 00:17:56;;;;;;;;;;;;;;;2.29;67.91;99279.69;4450027;32;34596;-54
2021/12/26 00:20:24;;;;;;;;;;;;;;;2.35;68.06;99274.25;4451812;32;34404;-53
2021/12/26 00:22:51;;;;;;;;;;;;;;;2.38;67.56;99278.47;4450434;32;33781;-53
2021/12/26 00:25:22;;;;;;;;;;;;;;;2.35;68.04;99286.41;4450929;32;34969;-54
2021/12/26 00:27:49;;;;;;;;;;;;;;;2.05;69.08;99281.38;4451795;32;33705;-53
2021/12/26 00:30:17;;;;;;;;;;;;;;;2.00;69.05;99293.72;4450288;32;33459;-53
2021/12/26 00:32:45;;;;;;;;;;;;;;;2.13;68.92;99288.94;4451197;32;34258;-53
2021/12/26 00:35:12;;;;;;;;;;;;;;;2.10;69.07;99286.44;4450155;32;34770;-53
2021/12/26 00:37:40;;;;;;;;;;;;;;;2.31;68.49;99290.88;4451761;32;34595;-54
2021/12/26 00:40:08;;;;;;;;;;;;;;;2.19;69.04;99287.84;4450747;32;32883;-53
2021/12/26 00:42:35;;;;;;;;;;;;;;;1.90;69.72;99292.31;4450636;32;34590;-53
2021/12/26 00:45:06;;;;;;;;;;;;;;;2.18;68.92;99292.22;4451222;32;35225;-53
2021/12/26 00:47:34;;;;;;;;;;;;;;;2.12;69.38;99293.28;4450104;32;34323;-53
2021/12/26 00:50:01;;;;;;;;;;;;;;;2.27;68.95;99291.03;4451355;32;33478;-53
2021/12/26 00:52:28;;;;;;;;;;;;;;;2.23;68.44;99285.09;4450127;32;34035;-54
2021/12/26 00:54:56;;;;;;;;;;;;;;;2.18;68.73;99287.00;4451289;32;34991;-54
2021/12/26 00:57:23;;;;;;;;;;;;;;;2.46;67.47;99293.84;4450066;32;34954;-53
2021/12/26 00:59:50;;;;;;;;;;;;;;;2.18;68.58;99292.22;4450753;32;33487;-53
2021/12/26 01:02:17;;;;;;;;;;;;;;;2.25;68.32;99293.72;4451256;32;33603;-53
2021/12/26 01:04:45;;;;;;;;;;;;;;;2.09;69.24;99297.75;4450030;32;34749;-54
2021/12/26 01:08:00;;;;;;;;;;;;;;;2.25;68.02;99300.66;4450573;32;33994;-53
2021/12/26 01:10:00;;;;;;;;;;;;;;;2.05;69.15;99301.38;4439664;32;33591;-53
2021/12/26 01:12:29;;;;;;;;;;;;;;;1.86;70.02;99295.94;4450846;32;34223;-53
2021/12/26 01:15:03;;;;;;;;;;;;;;;1.83;69.88;99303.88;4450722;32;34053;-53
2021/12/26 01:17:30;;;;;;;;;;;;;;;1.96;69.91;99300.78;4450052;32;34938;-53
2021/12/26 01:19:58;;;;;;;;;;;;;;;2.04;69.74;99300.53;4451330;32;33541;-53
2021/12/26 01:22:26;;;;;;;;;;;;;;;1.87;70.05;99302.88;4450324;32;34901;-53
2021/12/26 01:24:58;;;;;;;;;;;;;;;1.89;69.40;99306.25;4453074;32;34980;-53
2021/12/26 01:27:26;;;;;;;;;;;;;;;2.04;68.65;99310.94;4451757;32;34925;-53
2021/12/26 01:29:54;;;;;;;;;;;;;;;2.17;68.05;99308.75;4452468;32;33547;-55
2021/12/26 01:32:22;;;;;;;;;;;;;;;2.01;69.06;99320.63;4452873;32;33727;-53
2021/12/26 01:34:50;;;;;;;;;;;;;;;1.77;69.56;99317.94;4451837;32;34858;-53
2021/12/26 01:37:18;;;;;;;;;;;;;;;1.86;69.59;99319.38;4452602;32;34033;-54
2021/12/26 01:39:45;;;;;;;;;;;;;;;1.82;69.18;99315.16;4451541;32;33025;-53
2021/12/26 01:42:13;;;;;;;;;;;;;;;1.67;69.99;99320.00;4453020;32;33920;-53
2021/12/26 01:44:41;;;;;;;;;;;;;;;1.81;69.24;99308.28;4451722;32;35468;-53
2021/12/26 01:47:10;;;;;;;;;;;;;;;1.61;69.92;99311.53;4452107;32;34656;-54
2021/12/26 01:49:37;;;;;;;;;;;;;;;1.72;69.17;99314.63;4452845;32;33316;-53
2021/12/26 01:52:05;;;;;;;;;;;;;;;1.75;69.03;99312.78;4451459;32;34080;-53
2021/12/26 01:54:38;;;;;;;;;;;;;;;1.58;69.87;99307.28;4452940;32;34158;-53
2021/12/26 01:57:07;;;;;;;;;;;;;;;1.74;69.38;99318.03;4451218;32;34431;-53
2021/12/26 01:59:34;;;;;;;;;;;;;;;1.58;69.74;99308.13;4452915;32;33774;-53
2021/12/26 02:02:02;;;;;;;;;;;;;;;1.75;69.25;99314.53;4452022;32;34215;-54
2021/12/26 02:04:30;;;;;;;;;;;;;;;1.85;69.03;99309.88;4452347;32;34569;-54
2021/12/26 02:06:59;;;;;;;;;;;;;;;1.93;68.72;99303.50;4438384;32;34508;-53
2021/12/26 02:09:27;;;;;;;;;;;;;;;1.97;68.36;99296.44;4451560;32;33545;-53
2021/12/26 02:11:55;;;;;;;;;;;;;;;1.84;68.80;99300.34;4452888;32;34627;-53
2021/12/26 02:14:22;;;;;;;;;;;;;;;1.90;68.55;99297.53;4451260;32;33949;-54
2021/12/26 02:16:50;;;;;;;;;;;;;;;1.77;69.06;99308.37;4452528;32;33174;-53
2021/12/26 02:19:18;;;;;;;;;;;;;;;1.82;69.25;99291.75;4451600;32;33040;-54
2021/12/26 02:24:56;;;;;;;;;;;;;;;2.07;68.70;99299.56;4452754;32;34520;-53
2021/12/26 02:27:31;;;;;;;;;;;;;;;2.37;67.66;99306.28;4449642;32;34516;-54
2021/12/26 02:29:59;;;;;;;;;;;;;;;2.36;67.79;99301.13;4452852;32;33156;-53
2021/12/26 02:32:28;;;;;;;;;;;;;;;2.33;68.29;99307.31;4451918;32;34997;-53
2021/12/26 02:34:57;;;;;;;;;;;;;;;2.48;68.10;99311.12;4451203;32;35516;-54
2021/12/26 02:37:24;;;;;;;;;;;;;;;2.33;68.00;99302.09;4452221;32;33932;-53
2021/12/26 02:39:52;;;;;;;;;;;;;;;2.38;67.79;99296.72;4451098;32;33070;-54
2021/12/26 02:42:20;;;;;;;;;;;;;;;2.42;67.50;99300.91;4451976;32;33806;-54
2021/12/26 02:44:48;;;;;;;;;;;;;;;2.35;67.51;99310.72;4450991;32;35613;-53
2021/12/26 02:47:29;;;;;;;;;;;;;;;2.49;66.92;99304.16;4452141;32;34439;-54
2021/12/26 02:49:57;;;;;;;;;;;;;;;2.45;67.18;99305.19;4452151;32;33504;-53
2021/12/26 02:52:25;;;;;;;;;;;;;;;2.52;66.66;99296.22;4450850;32;34073;-54
2021/12/26 02:54:52;;;;;;;;;;;;;;;2.55;65.95;99309.97;4452306;32;34803;-54
2021/12/26 02:57:19;;;;;;;;;;;;;;;2.62;65.39;99309.75;4450935;32;33321;-54
2021/12/26 02:59:47;;;;;;;;;;;;;;;2.62;65.63;99301.94;4452439;32;33617;-53
2021/12/26 03:02:14;;;;;;;;;;;;;;;2.80;65.13;99301.25;4451271;32;33549;-53
2021/12/26 03:04:41;;;;;;;;;;;;;;;2.73;65.06;99302.38;4451341;32;35497;-54
2021/12/26 03:07:09;;;;;;;;;;;;;;;2.69;64.94;99314.69;4451818;32;35139;-53
2021/12/26 03:09:45;;;;;;;;;;;;;;;2.74;64.78;99317.13;4451154;32;33490;-54
2021/12/26 03:12:12;;;;;;;;;;;;;;;3.01;63.87;99315.25;4452151;32;33741;-54
2021/12/26 03:14:41;;;;;;;;;;;;;;;2.99;63.49;99316.22;4450393;32;34125;-53
2021/12/26 03:17:08;;;;;;;;;;;;;;;2.84;64.00;99315.03;4452313;32;34737;-54
2021/12/26 03:19:36;;;;;;;;;;;;;;;2.80;64.48;99306.47;4451324;32;33337;-54
2021/12/26 03:22:04;;;;;;;;;;;;;;;2.92;63.92;99310.38;4451477;32;33915;-54
2021/12/26 03:24:31;;;;;;;;;;;;;;;2.85;63.32;99309.78;4451753;32;34318;-54
2021/12/26 03:27:00;;;;;;;;;;;;;;;2.79;63.29;99319.56;4450550;32;34404;-53
2021/12/26 03:29:31;;;;;;;;;;;;;;;2.75;63.04;99313.59;4452198;32;32960;-53
2021/12/26 03:31:58;;;;;;;;;;;;;;;2.96;62.62;99310.19;4451033;32;33818;-53
2021/12/26 03:34:25;;;;;;;;;;;;;;;2.94;62.15;99308.56;4451518;32;34860;-54
2021/12/26 03:36:56;;;;;;;;;;;;;;;2.84;61.80;99297.63;4451216;32;35036;-53
2021/12/26 03:39:23;;;;;;;;;;;;;;;2.78;61.46;99307.44;4451722;32;33651;-54
2021/12/26 03:41:51;;;;;;;;;;;;;;;2.72;61.77;99303.31;4452214;32;33567;-54
2021/12/26 03:44:18;;;;;;;;;;;;;;;2.92;62.29;99300.78;4449633;32;34872;-54
2021/12/26 03:46:46;;;;;;;;;;;;;;;3.00;62.66;99302.25;4451654;32;34268;-54
2021/12/26 03:49:14;;;;;;;;;;;;;;;2.95;62.64;99299.84;4450854;32;33342;-53
2021/12/26 03:51:42;;;;;;;;;;;;;;;3.08;62.31;99305.41;4452236;32;33952;-54
2021/12/26 03:54:10;;;;;;;;;;;;;;;3.08;62.69;99295.84;4450935;32;35128;-53
2021/12/26 03:56:38;;;;;;;;;;;;;;;3.20;63.22;99297.13;4451381;32;34978;-54
2021/12/26 03:59:06;;;;;;;;;;;;;;;3.15;63.37;99301.66;4452218;32;34003;-54
2021/12/26 04:01:33;;;;;;;;;;;;;;;3.18;63.57;99308.50;4450705;32;33920;-54
2021/12/26 04:04:01;;;;;;;;;;;;;;;3.22;63.42;99300.53;4451493;32;36038;-54
2021/12/26 04:06:29;;;;;;;;;;;;;;;3.27;63.43;99298.56;4450275;32;35176;-53
2021/12/26 04:08:56;;;;;;;;;;;;;;;3.27;63.18;99295.94;4452086;32;34093;-54
2021/12/26 04:11:24;;;;;;;;;;;;;;;3.39;62.78;99301.59;4450701;32;35032;-54
2021/12/26 04:13:51;;;;;;;;;;;;;;;3.39;62.48;99283.31;4451104;32;34201;-54
2021/12/26 04:16:18;;;;;;;;;;;;;;;3.39;61.20;99294.59;4451077;32;35233;-54
2021/12/26 04:18:46;;;;;;;;;;;;;;;3.35;61.42;99300.87;4450462;32;34036;-54
2021/12/26 04:21:14;;;;;;;;;;;;;;;3.49;60.98;99293.34;4438075;32;34160;-54
2021/12/26 04:23:41;;;;;;;;;;;;;;;3.52;61.07;99298.44;4450670;32;34157;-54
2021/12/26 04:26:09;;;;;;;;;;;;;;;3.53;61.25;99301.91;4451779;32;33995;-54
2021/12/26 04:28:36;;;;;;;;;;;;;;;3.46;61.25;99305.66;4451100;32;33613;-54
2021/12/26 04:31:04;;;;;;;;;;;;;;;3.64;60.95;99304.06;4451268;32;34056;-53
2021/12/26 04:33:32;;;;;;;;;;;;;;;3.53;61.23;99307.13;4451560;32;34234;-54
2021/12/26 04:35:59;;;;;;;;;;;;;;;3.41;61.67;99310.22;4450319;32;35032;-54
2021/12/26 04:38:26;;;;;;;;;;;;;;;3.60;61.05;99316.38;4451863;32;33351;-53
2021/12/26 04:40:54;;;;;;;;;;;;;;;3.84;59.63;99324.13;4449523;32;33995;-54
2021/12/26 04:43:24;;;;;;;;;;;;;;;3.67;59.58;99324.84;4451708;32;34889;-54
2021/12/26 04:45:51;;;;;;;;;;;;;;;3.69;59.62;99329.06;4450837;32;34685;-53
2021/12/26 04:48:21;;;;;;;;;;;;;;;3.68;60.09;99326.53;4451156;32;31609;-54
2021/12/26 04:50:48;;;;;;;;;;;;;;;3.54;59.94;99335.75;4451056;32;33075;-54
2021/12/26 04:53:15;;;;;;;;;;;;;;;3.59;59.67;99335.59;4450441;32;34510;-54
2021/12/26 04:55:43;;;;;;;;;;;;;;;3.55;59.95;99341.84;4451224;32;34822;-54
2021/12/26 04:58:10;;;;;;;;;;;;;;;3.64;59.81;99345.84;4450004;32;33769;-54
2021/12/26 05:00:37;;;;;;;;;;;;;;;3.69;59.88;99342.12;4451253;32;35030;-54
2021/12/26 05:03:07;;;;;;;;;;;;;;;3.72;59.51;99339.41;4450364;32;34490;-54
2021/12/26 05:05:35;;;;;;;;;;;;;;;3.75;59.27;99344.50;4450643;32;35051;-54
2021/12/26 05:08:02;;;;;;;;;;;;;;;3.65;59.12;99350.16;4450884;32;33589;-54
2021/12/26 05:10:30;;;;;;;;;;;;;;;3.74;59.66;99344.53;4449637;32;34272;-54
2021/12/26 05:12:57;;;;;;;;;;;;;;;3.67;59.85;99346.56;4451117;32;34661;-53
2021/12/26 05:15:24;;;;;;;;;;;;;;;3.60;60.49;99347.72;4449760;32;34829;-54
2021/12/26 05:17:52;;;;;;;;;;;;;;;3.63;59.69;99347.63;4451117;32;34342;-54
2021/12/26 05:20:21;;;;;;;;;;;;;;;3.70;59.54;99358.66;4436146;32;34238;-54
2021/12/26 05:22:49;;;;;;;;;;;;;;;3.60;59.36;99360.78;4450890;32;34710;-54
2021/12/26 05:25:16;;;;;;;;;;;;;;;3.90;58.87;99366.53;4450832;32;34616;-54
2021/12/26 05:27:44;;;;;;;;;;;;;;;3.77;58.62;99367.09;4449935;32;33126;-54
2021/12/26 05:30:12;;;;;;;;;;;;;;;3.74;58.86;99363.69;4451170;32;34302;-54
2021/12/26 05:32:40;;;;;;;;;;;;;;;3.55;57.02;99362.75;4449714;32;35047;-54
2021/12/26 05:35:09;;;;;;;;;;;;;;;3.64;57.51;99379.78;4450604;32;34085;-54
2021/12/26 05:37:36;;;;;;;;;;;;;;;3.66;56.85;99377.97;4450197;32;34092;-54
2021/12/26 05:40:04;;;;;;;;;;;;;;;3.66;55.58;99384.03;4450483;32;34065;-54
2021/12/26 05:42:32;;;;;;;;;;;;;;;3.59;52.53;99386.94;4450866;32;35720;-54
2021/12/26 05:44:59;;;;;;;;;;;;;;;3.49;52.33;99378.63;4449187;32;34479;-54
2021/12/26 05:47:28;;;;;;;;;;;;;;;3.62;53.61;99382.44;4450687;32;33063;-53
2021/12/26 05:49:55;;;;;;;;;;;;;;;3.58;54.66;99387.88;4449454;32;33708;-54
2021/12/26 05:52:24;;;;;;;;;;;;;;;3.52;54.24;99381.13;4450624;32;34046;-54
2021/12/26 05:54:51;;;;;;;;;;;;;;;3.62;53.88;99385.06;4449581;32;35487;-54
2021/12/26 05:57:19;;;;;;;;;;;;;;;3.75;54.07;99393.28;4449961;32;34352;-54
2021/12/26 05:59:46;;;;;;;;;;;;;;;3.71;53.66;99392.53;4450594;32;34852;-54
2021/12/26 06:02:14;;;;;;;;;;;;;;;3.59;54.08;99390.44;4449148;32;34024;-54
2021/12/26 06:04:42;;;;;;;;;;;;;;;3.90;53.62;99397.88;4450525;32;34392;-54
2021/12/26 06:07:11;;;;;;;;;;;;;;;3.57;50.45;99401.81;4448628;32;33482;-54
2021/12/26 06:09:38;;;;;;;;;;;;;;;3.43;49.76;99404.97;4452453;32;33970;-54
2021/12/26 06:12:06;;;;;;;;;;;;;;;3.34;49.60;99408.81;4452001;32;34026;-54
2021/12/26 06:14:33;;;;;;;;;;;;;;;3.41;51.01;99418.06;4452342;32;34069;-54
2021/12/26 06:17:00;;;;;;;;;;;;;;;3.43;50.32;99415.41;4452197;32;34264;-53
2021/12/26 06:19:33;;;;;;;;;;;;;;;3.40;50.35;99415.53;4451380;32;34626;-53
2021/12/26 06:22:06;;;;;;;;;;;;;;;3.70;50.66;99424.81;4452513;32;35034;-54
2021/12/26 06:24:35;;;;;;;;;;;;;;;3.60;51.26;99420.81;4451484;32;34082;-53
2021/12/26 06:27:04;;;;;;;;;;;;;;;3.45;52.33;99424.91;4452160;32;33723;-54
2021/12/26 06:29:32;;;;;;;;;;;;;;;3.57;52.40;99427.94;4452089;32;33708;-54
2021/12/26 06:32:00;;;;;;;;;;;;;;;3.50;51.75;99428.16;4452000;32;33132;-54
2021/12/26 06:34:31;;;;;;;;;;;;;;;3.55;50.56;99423.63;4452672;32;34203;-54
2021/12/26 06:37:04;;;;;;;;;;;;;;;3.65;49.23;99429.34;4451004;32;32653;-53
2021/12/26 06:39:47;;;;;;;;;;;;;;;3.55;50.91;99428.84;4452412;32;32459;-54
2021/12/26 06:42:30;;;;;;;;;;;;;;;3.86;50.71;99437.25;4451998;32;33647;-54
2021/12/26 06:45:02;;;;;;;;;;;;;;;3.82;49.54;99427.81;4451691;32;35011;-54
2021/12/26 06:47:30;;;;;;;;;;;;;;;3.74;50.00;99441.19;4452172;32;33370;-54
2021/12/26 06:49:57;;;;;;;;;;;;;;;3.53;47.30;99437.66;4451048;32;33835;-54
2021/12/26 06:52:24;;;;;;;;;;;;;;;3.60;46.93;99441.72;4452402;32;34551;-54
2021/12/26 06:54:51;;;;;;;;;;;;;;;3.73;48.10;99447.31;4450763;32;35188;-54
2021/12/26 06:57:19;;;;;;;;;;;;;;;3.67;48.40;99456.25;4451984;32;34557;-53
2021/12/26 06:59:46;;;;;;;;;;;;;;;3.71;48.66;99450.00;4451608;32;35064;-54
2021/12/26 07:02:13;;;;;;;;;;;;;;;3.68;46.13;99447.53;4451778;32;35641;-54
2021/12/26 07:04:41;;;;;;;;;;;;;;;3.72;47.08;99450.84;4452494;32;34233;-54
2021/12/26 07:07:09;;;;;;;;;;;;;;;3.69;45.78;99449.19;4450799;32;32832;-54
2021/12/26 07:09:37;;;;;;;;;;;;;;;3.79;45.73;99451.47;4446542;32;34891;-54
2021/12/26 07:12:04;;;;;;;;;;;;;;;3.72;46.31;99456.06;4440860;32;35496;-54
2021/12/26 07:14:32;;;;;;;;;;;;;;;3.75;47.03;99454.19;4445702;32;34925;-54
2021/12/26 07:17:00;;;;;;;;;;;;;;;3.75;47.07;99456.78;4436343;32;33416;-53
2021/12/26 07:19:27;;;;;;;;;;;;;;;3.76;48.62;99457.63;4436112;32;34143;-53
2021/12/26 07:21:56;;;;;;;;;;;;;;;3.73;49.17;99465.59;4451671;32;35449;-54
2021/12/26 07:24:23;;;;;;;;;;;;;;;3.78;49.10;99468.03;4449888;32;34174;-54
2021/12/26 07:26:51;;;;;;;;;;;;;;;3.83;49.11;99466.94;4451932;32;34083;-55
2021/12/26 07:29:19;;;;;;;;;;;;;;;3.84;49.11;99473.00;4450534;32;32519;-54
2021/12/26 07:31:46;;;;;;;;;;;;;;;3.75;50.08;99477.69;4447787;32;34907;-54
2021/12/26 07:34:14;;;;;;;;;;;;;;;3.79;50.76;99469.75;4449301;32;34112;-54
2021/12/26 07:36:44;;;;;;;;;;;;;;;3.76;48.72;99475.91;4450176;32;33557;-54
2021/12/26 07:39:11;;;;;;;;;;;;;;;3.86;48.20;99472.06;4446350;32;33975;-54
2021/12/26 07:41:38;;;;;;;;;;;;;;;3.92;46.19;99471.81;4445150;32;34385;-53
2021/12/26 07:44:06;;;;;;;;;;;;;;;3.96;45.92;99476.94;4450781;32;34781;-54
2021/12/26 07:46:37;;;;;;;;;;;;;;;3.89;47.13;99469.31;4450418;32;34047;-54
2021/12/26 07:49:05;;;;;;;;;;;;;;;3.93;48.49;99467.44;4452059;32;33951;-54
2021/12/26 07:51:40;;;;;;;;;;;;;;;3.98;48.70;99470.72;4451554;32;33891;-54
2021/12/26 07:54:23;;;;;;;;;;;;;;;3.89;47.98;99477.13;4448076;32;32910;-54
2021/12/26 07:57:06;;;;;;;;;;;;;;;4.06;46.01;99479.09;4451370;32;34152;-53
2021/12/26 07:59:48;;;;;;;;;;;;;;;4.01;45.89;99485.41;4449942;32;33819;-54
2021/12/26 08:02:30;;;;;;;;;;;;;;;3.94;47.29;99488.28;4443983;32;34420;-54
2021/12/26 08:05:00;;;;;;;;;;;;;;;3.93;45.97;99483.94;4445420;32;33606;-54
2021/12/26 08:07:28;;;;;;;;;;;;;;;4.16;46.68;99490.03;4446458;32;32886;-54
2021/12/26 08:09:55;;;;;;;;;;;;;;;4.04;45.70;99485.31;4413761;32;743551;-54
2021/12/26 08:12:23;;;;;;;;;;;;;;;3.91;44.96;99497.97;4435288;32;35579;-54
2021/12/26 08:14:50;;;;;;;;;;;;;;;3.71;42.66;99486.56;4444893;32;34738;-53
2021/12/26 08:17:17;;;;;;;;;;;;;;;3.87;43.41;99486.81;4451003;32;33193;-54
2021/12/26 08:19:44;;;;;;;;;;;;;;;4.23;46.42;99474.97;4450365;32;34127;-54
2021/12/26 08:22:12;;;;;;;;;;;;;;;4.23;47.25;99474.97;4442568;32;34799;-54
2021/12/26 08:24:39;;;;;;;;;;;;;;;4.00;45.28;99478.50;4449532;32;33988;-53
2021/12/26 08:27:06;;;;;;;;;;;;;;;4.00;43.53;99487.19;4451753;32;32929;-54
2021/12/26 08:29:33;;;;;;;;;;;;;;;4.24;44.18;99482.72;4438114;32;34282;-54
2021/12/26 08:32:01;;;;;;;;;;;;;;;4.11;43.28;99484.13;4435558;32;35424;-54
2021/12/26 08:34:29;;;;;;;;;;;;;;;4.18;42.49;99480.38;4435285;32;34059;-54
2021/12/26 08:37:03;;;;;;;;;;;;;;;4.31;42.73;99496.41;4450579;32;34427;-54
2021/12/26 08:39:32;;;;;;;;;;;;;;;4.27;43.24;99493.06;4439940;32;33943;-54
2021/12/26 08:41:59;;;;;;;;;;;;;;;3.98;41.90;99496.00;4448085;32;34499;-54
2021/12/26 08:44:34;;;;;;;;;;;;;;;4.06;41.45;99502.59;4451506;32;35736;-54
2021/12/26 08:47:03;;;;;;;;;;;;;;;4.13;41.71;99500.63;4435852;32;33133;-53
2021/12/26 08:49:30;;;;;;;;;;;;;;;4.41;42.84;99502.94;4449733;32;34076;-54
2021/12/26 08:51:57;;;;;;;;;;;;;;;4.18;41.16;99498.66;4450641;32;34531;-53
2021/12/26 08:54:26;;;;;;;;;;;;;;;3.91;40.42;99509.28;4450493;32;34424;-54
2021/12/26 08:56:53;;;;;;;;;;;;;;;3.87;40.75;99502.47;4448694;32;33444;-54
2021/12/26 08:59:21;;;;;;;;;;;;;;;4.10;40.88;99503.34;4434555;32;34319;-53
2021/12/26 09:01:49;;;;;;;;;;;;;;;4.38;41.57;99495.25;4436115;32;34599;-54
2021/12/26 09:04:16;;;;;;;;;;;;;;;4.22;42.08;99492.38;4434544;32;34162;-54
2021/12/26 09:06:44;;;;;;;;;;;;;;;4.13;40.42;99496.25;4443044;32;33443;-54
2021/12/26 09:09:11;;;;;;;;;;;;;;;4.34;40.63;99491.91;4438920;32;33654;-53
2021/12/26 09:11:39;;;;;;;;;;;;;;;4.40;39.60;99485.59;4435142;32;34793;-53
2021/12/26 09:14:06;;;;;;;;;;;;;;;4.24;39.63;99476.66;4435760;32;34982;-54
2021/12/26 09:16:34;;;;;;;;;;;;;;;3.91;39.04;99477.94;4438386;32;33701;-54
2021/12/26 09:19:01;;;;;;;;;;;;;;;4.12;38.64;99478.84;4451082;32;34370;-53
2021/12/26 09:21:29;;;;;;;;;;;;;;;4.23;39.54;99478.44;4444661;32;35626;-54
2021/12/26 09:23:57;;;;;;;;;;;;;;;4.47;40.63;99475.72;4450672;32;33896;-54
2021/12/26 09:26:24;;;;;;;;;;;;;;;4.32;39.40;99478.06;4449838;32;33797;-54
2021/12/26 09:28:51;;;;;;;;;;;;;;;4.23;38.43;99472.34;4446827;32;34012;-54
2021/12/26 09:31:18;;;;;;;;;;;;;;;4.44;40.73;99478.44;4450446;32;35030;-54
2021/12/26 09:33:45;;;;;;;;;;;;;;;4.32;39.50;99474.56;4440595;32;34537;-53
2021/12/26 09:36:13;;;;;;;;;;;;;;;4.37;39.09;99477.00;4450345;32;33138;-54
2021/12/26 09:38:40;;;;;;;;;;;;;;;4.27;38.74;99469.53;4440216;32;34355;-54
2021/12/26 09:41:08;;;;;;;;;;;;;;;4.29;38.55;99474.72;4449518;32;34317;-54
2021/12/26 09:43:37;;;;;;;;;;;;;;;4.65;39.83;99469.72;4447083;32;34259;-55
2021/12/26 09:46:05;;;;;;;;;;;;;;;4.45;38.81;99478.38;4451664;32;33559;-55
2021/12/26 09:48:32;;;;;;;;;;;;;;;4.35;38.90;99477.06;4445495;32;35121;-55
2021/12/26 09:50:59;;;;;;;;;;;;;;;4.27;37.04;99471.31;4435160;32;35382;-55
2021/12/26 09:53:26;;;;;;;;;;;;;;;4.45;37.56;99467.91;4437183;32;34390;-55
2021/12/26 09:55:53;;;;;;;;;;;;;;;4.33;38.39;99460.59;4439056;32;33655;-55
2021/12/26 09:58:21;;;;;;;;;;;;;;;4.49;37.70;99455.56;4446761;32;33037;-55
2021/12/26 10:00:48;;;;;;;;;;;;;;;4.57;39.85;99457.88;4447784;32;34757;-55
2021/12/26 10:03:19;;;;;;;;;;;;;;;4.78;39.60;99461.34;4452112;32;34551;-54
2021/12/26 10:06:00;;;;;;;;;;;;;;;4.96;37.99;99457.06;4452232;32;33145;-54
2021/12/26 10:08:28;;;;;;;;;;;;;;;4.34;36.12;99463.16;4450024;32;33661;-55
2021/12/26 10:11:04;;;;;;;;;;;;;;;4.56;36.47;99457.03;4451140;32;34986;-55
2021/12/26 10:13:38;;;;;;;;;;;;;;;4.70;36.42;99451.19;4448286;32;35322;-55
2021/12/26 10:16:05;;;;;;;;;;;;;;;4.70;36.31;99452.03;4444815;32;33759;-55
2021/12/26 10:18:39;;;;;;;;;;;;;;;4.66;36.17;99450.47;4445203;32;34890;-55
2021/12/26 10:21:25;;;;;;;;;;;;;;;4.74;37.26;99456.22;4449237;32;35590;-55
2021/12/26 10:23:53;;;;;;;;;;;;;;;4.76;39.38;99458.78;4443563;32;34782;-55
2021/12/26 10:26:21;;;;;;;;;;;;;;;4.73;35.71;99448.47;4450752;32;34072;-55
2021/12/26 10:29:07;;;;;;;;;;;;;;;4.85;37.32;99444.47;4451579;32;33718;-55
2021/12/26 10:31:35;;;;;;;;;;;;;;;5.03;36.96;99437.56;4450998;32;34642;-55
2021/12/26 10:34:03;;;;;;;;;;;;;;;4.86;35.52;99449.59;4449825;32;34075;-55
2021/12/26 10:36:41;;;;;;;;;;;;;;;5.00;35.72;99440.31;4451955;32;32974;-55
2021/12/26 10:39:14;;;;;;;;;;;;;;;4.89;34.95;99440.78;4449829;32;34150;-55
2021/12/26 10:41:44;;;;;;;;;;;;;;;5.02;35.17;99433.22;4449119;32;35557;-55
2021/12/26 10:44:18;;;;;;;;;;;;;;;5.40;63.17;99443.75;4450497;32;34469;-55
2021/12/26 10:46:53;;;;;;;;;;;;;;;6.45;67.18;99436.97;4450417;32;33503;-55
2021/12/26 10:49:21;;;;;;;;;;;;;;;7.15;47.79;99435.09;4451056;32;35014;-55
2021/12/26 10:51:48;;;;;;;;;;;;;;;7.48;48.80;99437.72;4450913;32;35470;-55
2021/12/26 10:54:16;;;;;;;;;;;;;;;7.17;33.88;99432.41;4452029;32;33926;-55
2021/12/26 10:57:03;;;;;;;;;;;;;;;7.04;33.88;99435.69;4437031;32;32798;-56
2021/12/26 10:59:30;;;;;;;;;;;;;;;6.88;35.43;99437.41;4451558;32;34281;-55
2021/12/26 11:01:57;;;;;;;;;;;;;;;6.74;35.01;99421.53;4452045;32;34481;-55
2021/12/26 11:04:25;;;;;;;;;;;;;;;6.36;34.81;99433.06;4451267;32;33436;-55
2021/12/26 11:07:19;;;;;;;;;;;;;;;6.42;34.66;99427.50;4438246;32;34033;-55
2021/12/26 11:09:46;;;;;;;;;;;;;;;6.39;34.17;99432.88;4448582;32;34504;-55
2021/12/26 11:12:13;;;;;;;;;;;;;;;6.23;32.46;99429.34;4437899;32;34654;-55
2021/12/26 11:14:56;;;;;;;;;;;;;;;6.25;34.86;99435.38;4451962;32;35073;-55
2021/12/26 11:17:28;;;;;;;;;;;;;;;6.35;35.27;99427.88;4451009;32;33745;-55
2021/12/26 11:19:55;;;;;;;;;;;;;;;6.15;32.51;99418.41;4452184;32;33708;-55
2021/12/26 11:22:25;;;;;;;;;;;;;;;6.05;34.14;99416.22;4450883;32;34187;-55
2021/12/26 11:24:53;;;;;;;;;;;;;;;6.12;35.55;99422.84;4452025;32;34540;-55
2021/12/26 11:27:21;;;;;;;;;;;;;;;6.12;33.92;99430.72;4451592;32;33185;-55
2021/12/26 11:29:52;;;;;;;;;;;;;;;6.03;32.25;99425.06;4450913;32;35014;-55
2021/12/26 11:32:20;;;;;;;;;;;;;;;5.98;32.03;99414.81;4452124;32;34712;-55
2021/12/26 11:34:47;;;;;;;;;;;;;;;5.97;30.71;99418.38;4450887;32;34197;-55
2021/12/26 11:37:15;;;;;;;;;;;;;;;5.76;31.61;99419.34;4452175;32;33315;-55
2021/12/26 11:39:44;;;;;;;;;;;;;;;5.88;31.14;99418.78;4450784;32;34056;-55
2021/12/26 11:42:42;;;;;;;;;;;;;;;6.62;36.97;99428.25;4436365;32;34809;-55
2021/12/26 11:45:25;;;;;;;;;;;;;;;5.96;30.32;99426.31;4436002;32;33755;-55
2021/12/26 11:48:36;;;;;;;;;;;;;;;6.10;30.38;99439.59;4444587;32;33660;-55
2021/12/26 11:51:12;;;;;;;;;;;;;;;6.24;27.97;99431.91;4449497;32;33080;-55
2021/12/26 11:53:51;;;;;;;;;;;;;;;6.14;28.83;99440.28;4451765;32;34246;-55
2021/12/26 11:56:37;;;;;;;;;;;;;;;6.03;30.75;99446.91;4434720;32;34977;-55
2021/12/26 11:59:07;;;;;;;;;;;;;;;5.71;31.68;99449.25;4450521;32;33673;-55
2021/12/26 12:01:35;;;;;;;;;;;;;;;5.54;33.97;99443.94;4450388;32;34569;-55
2021/12/26 12:04:20;;;;;;;;;;;;;;;5.36;33.00;99452.66;4450731;32;34565;-55
2021/12/26 12:06:48;;;;;;;;;;;;;;;5.43;33.26;99449.69;4450262;32;34091;-55
2021/12/26 12:09:34;;;;;;;;;;;;;;;5.52;35.45;99451.03;4449995;32;33294;-55
2021/12/26 12:12:06;;;;;;;;;;;;;;;5.80;35.38;99453.22;4450729;32;33348;-55
2021/12/26 12:14:44;;;;;;;;;;;;;;;5.76;35.77;99456.91;4450867;32;35371;-55
2021/12/26 12:17:18;;;;;;;;;;;;;;;6.00;35.12;99449.66;4450246;32;34555;-55
2021/12/26 12:20:06;;;;;;;;;;;;;;;5.80;34.44;99452.37;4451434;32;33755;-55
2021/12/26 12:22:34;;;;;;;;;;;;;;;5.67;34.73;99452.09;4449383;32;34282;-55
2021/12/26 12:25:40;;;;;;;;;;;;;;;5.90;33.52;99448.38;4451292;32;34750;-55
2021/12/26 12:28:07;;;;;;;;;;;;;;;5.85;32.33;99450.38;4387461;32;34458;-55
2021/12/26 12:30:35;;;;;;;;;;;;;;;5.95;34.22;99440.28;4385615;32;32377;-55
2021/12/26 12:33:38;;;;;;;;;;;;;;;5.86;34.96;99442.44;4418448;32;34918;-55
2021/12/26 12:36:08;;;;;;;;;;;;;;;5.98;34.99;99441.03;4386391;32;34863;-55
2021/12/26 12:38:42;;;;;;;;;;;;;;;5.96;34.46;99435.00;4442110;32;33959;-55
2021/12/26 12:41:28;;;;;;;;;;;;;;;5.63;33.85;99435.66;4451175;32;34049;-55
2021/12/26 12:44:00;;;;;;;;;;;;;;;5.84;33.24;99427.72;4449778;32;34855;-55
2021/12/26 12:46:28;;;;;;;;;;;;;;;6.01;34.32;99421.69;4445613;32;34713;-55
2021/12/26 12:49:03;;;;;;;;;;;;;;;5.84;35.07;99417.25;4440044;32;34516;-56
2021/12/26 12:51:33;;;;;;;;;;;;;;;5.97;35.36;99415.75;4449103;32;34254;-55
2021/12/26 12:54:03;;;;;;;;;;;;;;;5.81;34.87;99412.13;4436545;32;33224;-55
2021/12/26 12:56:33;;;;;;;;;;;;;;;6.04;34.15;99414.50;4449433;32;34857;-55
2021/12/26 12:59:17;;;;;;;;;;;;;;;6.03;35.33;99412.84;4450412;32;35002;-55
2021/12/26 13:01:45;;;;;;;;;;;;;;;6.08;46.07;99413.44;4450114;32;33659;-55
2021/12/26 13:04:14;;;;;;;;;;;;;;;5.99;36.62;99415.66;4450157;32;35221;-55
2021/12/26 13:06:54;;;;;;;;;;;;;;;6.36;36.96;99404.22;4450550;32;34401;-55
2021/12/26 13:09:22;;;;;;;;;;;;;;;6.33;38.34;99399.09;4448222;32;34037;-55
2021/12/26 13:11:49;;;;;;;;;;;;;;;5.82;41.40;99392.88;4450236;32;33503;-55
2021/12/26 13:14:35;;;;;;;;;;;;;;;6.08;40.53;99394.25;4448489;32;33900;-56